createdAt,value
2023-04-18T00:00:04.536Z,6.55
2023-04-18T00:02:06.047Z,6.52
2023-04-18T00:04:09.110Z,6.56
2023-04-18T00:06:11.733Z,6.54
2023-04-18T00:08:14.296Z,6.54
2023-04-18T00:10:17.383Z,6.51
2023-04-18T00:12:19.035Z,6.56
2023-04-18T00:14:23.009Z,6.54
2023-04-18T00:16:24.548Z,6.54
2023-04-18T00:18:26.924Z,6.53
2023-04-18T00:20:29.216Z,6.53
2023-04-18T00:22:31.937Z,6.51
2023-04-18T00:24:33.620Z,6.55
2023-04-18T00:26:35.911Z,6.55
2023-04-18T00:28:37.382Z,6.55
2023-04-18T00:30:41.896Z,6.53
2023-04-18T00:32:44.016Z,6.55
2023-04-18T00:34:47.066Z,6.56
2023-04-18T00:36:48.550Z,6.56
2023-04-18T00:38:50.633Z,6.58
2023-04-18T00:40:52.145Z,6.52
2023-04-18T00:42:53.615Z,6.54
2023-04-18T00:44:55.997Z,6.42
2023-04-18T00:46:58.955Z,6.54
2023-04-18T00:49:01.598Z,6.54
2023-04-18T00:51:04.322Z,6.47
2023-04-18T00:53:06.171Z,6.44
2023-04-18T00:55:08.882Z,6.47
2023-04-18T00:57:11.800Z,6.49
2023-04-18T00:59:14.048Z,6.52
2023-04-18T01:01:16.195Z,6.47
2023-04-18T01:03:19.141Z,6.45
2023-04-18T01:05:22.812Z,6.44
2023-04-18T01:07:25.332Z,6.46
2023-04-18T01:09:27.589Z,6.45
2023-04-18T01:11:29.785Z,6.49
2023-04-18T01:13:31.265Z,6.46
2023-04-18T01:15:32.766Z,6.48
2023-04-18T01:17:36.103Z,6.48
2023-04-18T01:19:40.212Z,6.42
2023-04-18T01:21:42.430Z,6.41
2023-04-18T01:23:44.114Z,6.43
2023-04-18T01:25:48.103Z,6.41
2023-04-18T01:27:49.592Z,6.50
2023-04-18T01:29:51.077Z,6.53
2023-04-18T01:31:52.480Z,6.53
2023-04-18T01:33:54.434Z,6.51
2023-04-18T01:35:56.409Z,6.53
2023-04-18T01:37:58.473Z,6.54
2023-04-18T01:40:00.972Z,6.54
2023-04-18T01:42:03.825Z,6.54
2023-04-18T01:44:05.308Z,6.55
2023-04-18T01:46:07.117Z,6.52
2023-04-18T01:48:08.663Z,6.55
2023-04-18T01:50:10.829Z,6.52
2023-04-18T01:52:13.299Z,6.47
2023-04-18T01:54:16.480Z,6.47
2023-04-18T01:56:19.770Z,6.50
2023-04-18T01:58:22.615Z,6.45
2023-04-18T02:00:24.858Z,6.45
2023-04-18T02:02:26.801Z,6.45
2023-04-18T02:04:28.441Z,6.46
2023-04-18T02:06:30.455Z,6.46
2023-04-18T02:08:32.401Z,6.46
2023-04-18T02:10:33.923Z,6.43
2023-04-18T02:12:35.425Z,6.45
2023-04-18T02:14:38.300Z,6.45
2023-04-18T02:16:39.795Z,6.42
2023-04-18T02:18:43.725Z,6.35
2023-04-18T02:20:45.780Z,6.38
2023-04-18T02:22:47.813Z,6.39
2023-04-18T02:24:49.334Z,6.42
2023-04-18T02:26:51.227Z,6.39
2023-04-18T02:28:53.390Z,6.43
2023-04-18T02:30:56.214Z,6.41
2023-04-18T02:32:58.605Z,6.45
2023-04-18T02:35:00.141Z,6.44
2023-04-18T02:37:01.812Z,6.43
2023-04-18T02:39:03.562Z,6.43
2023-04-18T02:41:05.099Z,6.47
2023-04-18T02:43:06.417Z,6.47
2023-04-18T02:45:08.932Z,6.42
2023-04-18T02:47:11.798Z,6.45
2023-04-18T02:49:13.286Z,6.42
2023-04-18T02:51:15.307Z,6.43
2023-04-18T02:53:16.808Z,6.45
2023-04-18T02:55:18.731Z,6.47
2023-04-18T02:57:20.478Z,6.49
2023-04-18T02:59:21.957Z,6.44
2023-04-18T03:01:24.213Z,6.42
2023-04-18T03:03:27.229Z,6.41
2023-04-18T03:05:28.740Z,6.41
2023-04-18T03:07:30.980Z,6.40
2023-04-18T03:09:32.594Z,6.36
2023-04-18T03:11:34.102Z,6.38
2023-04-18T03:13:35.859Z,6.35
2023-04-18T03:15:37.853Z,6.35
2023-04-18T03:17:39.451Z,6.35
2023-04-18T03:19:43.038Z,6.37
2023-04-18T03:21:45.252Z,6.39
2023-04-18T03:23:47.253Z,6.33
2023-04-18T03:25:48.807Z,6.29
2023-04-18T03:27:50.107Z,6.30
2023-04-18T03:29:52.638Z,6.28
2023-04-18T03:31:54.141Z,6.19
2023-04-18T03:33:55.604Z,6.24
2023-04-18T03:35:59.000Z,6.20
2023-04-18T03:38:00.803Z,6.21
2023-04-18T03:40:02.290Z,6.23
2023-04-18T03:42:03.591Z,6.21
2023-04-18T03:44:05.414Z,6.16
2023-04-18T03:46:07.029Z,6.12
2023-04-18T03:48:08.581Z,6.10
2023-04-18T03:50:10.301Z,6.04
2023-04-18T03:52:13.838Z,6.11
2023-04-18T03:54:15.721Z,5.99
2023-04-18T03:56:17.565Z,6.07
2023-04-18T03:58:19.672Z,6.06
2023-04-18T04:00:21.183Z,6.05
2023-04-18T04:02:23.314Z,5.92
2023-04-18T04:04:25.010Z,6.01
2023-04-18T04:06:26.708Z,6.03
2023-04-18T04:08:31.216Z,6.01
2023-04-18T04:10:32.727Z,6.01
2023-04-18T04:12:34.188Z,6.00
2023-04-18T04:14:36.816Z,5.98
2023-04-18T04:16:38.780Z,5.97
2023-04-18T04:18:40.329Z,5.95
2023-04-18T04:20:42.135Z,5.94
2023-04-18T04:22:43.599Z,6.00
2023-04-18T04:24:46.451Z,6.00
2023-04-18T04:26:49.175Z,6.04
2023-04-18T04:28:50.672Z,6.03
2023-04-18T04:30:52.356Z,6.07
2023-04-18T04:32:55.476Z,6.06
2023-04-18T04:34:56.980Z,6.05
2023-04-18T04:36:59.237Z,6.00
2023-04-18T04:39:00.829Z,5.97
2023-04-18T04:41:04.031Z,5.99
2023-04-18T04:43:05.546Z,6.01
2023-04-18T04:45:08.796Z,5.95
2023-04-18T04:47:15.130Z,5.90
2023-04-18T04:49:18.186Z,5.94
2023-04-18T04:51:19.636Z,5.98
2023-04-18T04:53:22.497Z,5.94
2023-04-18T04:55:23.972Z,5.92
2023-04-18T04:57:28.411Z,5.87
2023-04-18T04:59:29.879Z,5.86
2023-04-18T05:01:33.783Z,5.89
2023-04-18T05:03:35.515Z,5.91
2023-04-18T05:05:37.236Z,5.92
2023-04-18T05:07:41.341Z,5.87
2023-04-18T05:09:42.845Z,5.88
2023-04-18T05:11:45.857Z,5.88
2023-04-18T05:13:48.697Z,5.88
2023-04-18T05:15:50.208Z,5.85
2023-04-18T05:20:20.666Z,5.87
2023-04-18T05:27:15.040Z,5.94
2023-04-18T05:29:18.775Z,5.97
2023-04-18T05:43:29.610Z,5.99
2023-04-18T05:45:32.477Z,6.01
2023-04-18T05:47:34.019Z,5.99
2023-04-18T05:49:35.475Z,6.02
2023-04-18T05:51:37.193Z,6.04
2023-04-18T05:53:38.758Z,6.01
2023-04-18T05:55:40.587Z,6.08
2023-04-18T05:57:42.088Z,6.06
2023-04-18T05:59:43.813Z,6.09
2023-04-18T06:01:46.695Z,6.14
2023-04-18T06:03:48.412Z,6.22
2023-04-18T06:05:50.103Z,6.23
2023-04-18T06:07:51.440Z,6.26
2023-04-18T06:09:52.952Z,6.26
2023-04-18T06:11:54.410Z,6.31
2023-04-18T06:13:55.913Z,6.36
2023-04-18T06:15:57.607Z,6.38
2023-04-18T06:18:00.494Z,6.49
2023-04-18T06:20:02.449Z,6.46
2023-04-18T06:22:03.979Z,6.44
2023-04-18T06:24:06.061Z,6.45
2023-04-18T06:26:07.632Z,6.46
2023-04-18T06:28:09.031Z,6.50
2023-04-18T06:30:10.933Z,6.48
2023-04-18T06:32:12.607Z,6.46
2023-04-18T06:34:15.705Z,6.43
2023-04-18T06:36:17.437Z,6.37
2023-04-18T06:38:18.948Z,6.41
2023-04-18T06:40:20.460Z,6.29
2023-04-18T06:42:22.498Z,6.31
2023-04-18T06:44:24.464Z,6.30
2023-04-18T06:46:26.011Z,6.29
2023-04-18T06:48:27.498Z,6.36
2023-04-18T06:50:30.441Z,6.34
2023-04-18T06:52:32.116Z,6.35
2023-04-18T06:54:33.462Z,6.42
2023-04-18T06:56:36.540Z,6.51
2023-04-18T06:58:38.243Z,6.45
2023-04-18T07:00:39.551Z,6.56
2023-04-18T07:02:41.122Z,6.56
2023-04-18T07:04:42.897Z,6.64
2023-04-18T07:06:45.802Z,6.68
2023-04-18T07:08:47.320Z,6.70
2023-04-18T07:10:48.814Z,6.69
2023-04-18T07:12:50.288Z,6.73
2023-04-18T07:14:52.000Z,6.67
2023-04-18T07:16:53.508Z,6.78
2023-04-18T07:18:55.009Z,6.76
2023-04-18T07:20:56.496Z,6.91
2023-04-18T07:22:59.320Z,6.94
2023-04-18T07:25:00.808Z,6.98
2023-04-18T07:27:02.624Z,7.04
2023-04-18T07:29:04.333Z,7.17
2023-04-18T07:31:05.993Z,7.34
2023-04-18T07:33:07.544Z,7.37
2023-04-18T07:35:09.895Z,7.27
2023-04-18T07:37:14.137Z,7.32
2023-04-18T07:39:17.731Z,7.40
2023-04-18T07:41:19.214Z,7.25
2023-04-18T07:43:21.002Z,7.22
2023-04-18T07:45:22.510Z,7.13
2023-04-18T07:47:24.093Z,7.14
2023-04-18T07:49:25.461Z,7.27
2023-04-18T07:51:26.924Z,7.37
2023-04-18T07:53:28.403Z,7.61
2023-04-18T07:55:31.396Z,7.67
2023-04-18T07:57:32.972Z,7.72
2023-04-18T07:59:34.316Z,7.88
2023-04-18T08:01:35.763Z,7.94
2023-04-18T08:03:37.425Z,7.97
2023-04-18T08:05:39.334Z,7.85
2023-04-18T08:07:40.886Z,7.84
2023-04-18T08:09:42.231Z,7.73
2023-04-18T08:11:45.106Z,7.69
2023-04-18T08:13:46.598Z,7.81
2023-04-18T08:15:48.454Z,8.00
2023-04-18T08:17:50.977Z,8.23
2023-04-18T08:19:52.489Z,8.41
2023-04-18T08:21:54.036Z,8.60
2023-04-18T08:23:55.360Z,8.72
2023-04-18T08:25:56.952Z,8.62
2023-04-18T08:27:59.826Z,8.53
2023-04-18T08:30:01.416Z,8.33
2023-04-18T08:32:02.930Z,8.51
2023-04-18T08:34:05.207Z,8.59
2023-04-18T08:36:07.480Z,8.50
2023-04-18T08:38:09.069Z,8.56
2023-04-18T08:40:10.707Z,8.52
2023-04-18T08:42:15.573Z,8.65
2023-04-18T08:44:18.404Z,8.67
2023-04-18T08:46:19.953Z,8.82
2023-04-18T08:48:21.522Z,8.67
2023-04-18T08:50:22.918Z,8.71
2023-04-18T08:52:26.371Z,8.74
2023-04-18T08:54:28.212Z,8.62
2023-04-18T08:56:29.735Z,8.52
2023-04-18T08:58:31.125Z,8.27
2023-04-18T09:00:34.062Z,8.16
2023-04-18T09:02:37.023Z,8.25
2023-04-18T09:04:40.559Z,8.30
2023-04-18T09:06:51.712Z,8.46
2023-04-18T09:08:57.636Z,8.68
2023-04-18T09:11:20.354Z,8.83
2023-04-18T09:13:39.519Z,8.92
2023-04-18T09:15:54.323Z,8.97
2023-04-18T09:17:58.050Z,9.14
2023-04-18T09:20:00.806Z,9.22
2023-04-18T09:22:02.829Z,9.14
2023-04-18T09:24:16.519Z,9.11
2023-04-18T09:26:32.325Z,9.03
2023-04-18T09:28:33.936Z,9.04
2023-04-18T09:30:38.094Z,9.04
2023-04-18T09:32:41.061Z,9.12
2023-04-18T09:34:42.570Z,9.14
2023-04-18T09:36:44.197Z,9.14
2023-04-18T09:38:46.330Z,9.05
2023-04-18T09:41:06.722Z,9.00
2023-04-18T09:43:18.762Z,8.98
2023-04-18T09:45:21.185Z,8.99
2023-04-18T09:47:22.804Z,8.84
2023-04-18T09:49:25.898Z,8.86
2023-04-18T09:51:28.464Z,8.84
2023-04-18T09:53:30.921Z,8.87
2023-04-18T09:55:33.452Z,8.94
2023-04-18T09:57:36.567Z,8.96
2023-04-18T09:59:42.833Z,8.88
2023-04-18T10:01:44.598Z,8.90
2023-04-18T10:03:47.882Z,8.96
2023-04-18T10:05:51.353Z,9.04
2023-04-18T10:07:54.042Z,9.23
2023-04-18T10:09:55.594Z,9.42
2023-04-18T10:11:57.225Z,9.63
2023-04-18T10:14:02.318Z,9.78
2023-04-18T10:16:04.307Z,9.87
2023-04-18T10:18:09.410Z,9.94
2023-04-18T10:20:18.280Z,10.21
2023-04-18T10:22:27.172Z,10.40
2023-04-18T10:24:50.638Z,10.51
2023-04-18T10:26:52.100Z,10.56
2023-04-18T10:28:54.682Z,10.33
2023-04-18T10:31:00.414Z,10.33
2023-04-18T10:33:30.490Z,10.41
2023-04-18T10:35:35.250Z,10.20
2023-04-18T10:37:49.308Z,10.21
2023-04-18T10:39:56.904Z,10.30
2023-04-18T10:41:58.415Z,10.27
2023-04-18T10:44:13.000Z,10.36
2023-04-18T10:46:27.983Z,10.51
2023-04-18T10:48:32.963Z,10.74
2023-04-18T10:50:34.584Z,10.60
2023-04-18T10:52:36.096Z,10.77
2023-04-18T10:54:43.060Z,11.08
2023-04-18T10:56:51.626Z,11.30
2023-04-18T10:58:53.181Z,11.19
2023-04-18T11:00:55.118Z,11.27
2023-04-18T11:02:56.862Z,11.36
2023-04-18T11:05:00.162Z,11.53
2023-04-18T11:07:01.624Z,11.46
2023-04-18T11:09:09.291Z,11.55
2023-04-18T11:11:13.418Z,11.71
2023-04-18T11:13:14.914Z,11.59
2023-04-18T11:15:16.997Z,11.51
2023-04-18T11:17:19.658Z,11.24
2023-04-18T11:19:22.425Z,11.11
2023-04-18T11:21:25.779Z,11.03
2023-04-18T11:23:27.384Z,10.85
2023-04-18T11:25:30.270Z,10.76
2023-04-18T11:27:33.673Z,10.72
2023-04-18T11:29:35.256Z,10.82
2023-04-18T11:31:36.792Z,11.11
2023-04-18T11:33:38.394Z,11.36
2023-04-18T11:35:40.716Z,11.37
2023-04-18T11:37:43.370Z,11.36
2023-04-18T11:39:44.884Z,11.29
2023-04-18T11:41:46.221Z,11.29
2023-04-18T11:43:49.055Z,11.24
2023-04-18T11:45:52.387Z,11.15
2023-04-18T11:47:56.358Z,11.01
2023-04-18T11:49:59.182Z,11.06
2023-04-18T11:52:00.714Z,11.22
2023-04-18T11:54:02.232Z,11.33
2023-04-18T11:56:04.547Z,11.28
2023-04-18T11:58:06.180Z,11.26
2023-04-18T12:00:10.405Z,11.30
2023-04-18T12:02:16.730Z,11.09
2023-04-18T12:04:19.167Z,10.93
2023-04-18T12:06:21.143Z,10.87
2023-04-18T12:08:22.734Z,10.81
2023-04-18T12:10:26.854Z,10.69
2023-04-18T12:12:28.410Z,10.66
2023-04-18T12:14:30.359Z,10.63
2023-04-18T12:16:33.543Z,10.70
2023-04-18T12:18:35.152Z,10.87
2023-04-18T12:20:38.592Z,11.00
2023-04-18T12:22:42.512Z,11.17
2023-04-18T12:24:44.027Z,11.17
2023-04-18T12:26:45.639Z,11.30
2023-04-18T12:28:51.109Z,11.18
2023-04-18T12:30:52.626Z,11.24
2023-04-18T12:32:57.253Z,11.44
2023-04-18T12:34:58.871Z,11.39
2023-04-18T12:37:00.404Z,11.60
2023-04-18T12:39:01.894Z,11.54
2023-04-18T12:41:03.483Z,11.16
2023-04-18T12:43:05.022Z,10.98
2023-04-18T12:45:08.288Z,10.87
2023-04-18T12:47:09.904Z,10.87
2023-04-18T12:49:12.864Z,10.76
2023-04-18T12:51:14.360Z,10.64
2023-04-18T12:53:15.734Z,10.71
2023-04-18T12:55:17.288Z,10.89
2023-04-18T12:57:19.003Z,11.22
2023-04-18T12:59:20.513Z,11.45
2023-04-18T13:01:22.035Z,11.77
2023-04-18T13:03:23.818Z,12.11
2023-04-18T13:05:30.884Z,12.25
2023-04-18T13:07:35.033Z,12.39
2023-04-18T13:09:36.559Z,12.34
2023-04-18T13:11:38.096Z,12.27
2023-04-18T13:13:39.613Z,11.98
2023-04-18T13:15:41.149Z,11.71
2023-04-18T13:17:43.403Z,11.56
2023-04-18T13:19:44.902Z,11.64
2023-04-18T13:21:49.590Z,11.76
2023-04-18T13:23:51.397Z,11.93
2023-04-18T13:25:52.920Z,12.07
2023-04-18T13:27:54.467Z,12.21
2023-04-18T13:29:55.994Z,12.09
2023-04-18T13:31:57.494Z,11.95
2023-04-18T13:33:59.037Z,11.84
2023-04-18T13:36:00.381Z,11.79
2023-04-18T13:38:04.068Z,11.60
2023-04-18T13:40:06.732Z,11.67
2023-04-18T13:42:08.693Z,11.63
2023-04-18T13:44:10.218Z,11.57
2023-04-18T13:46:11.912Z,11.70
2023-04-18T13:48:16.193Z,11.90
2023-04-18T13:50:17.941Z,11.93
2023-04-18T13:52:19.481Z,12.07
2023-04-18T13:54:22.503Z,12.40
2023-04-18T13:56:24.009Z,12.49
2023-04-18T13:58:25.321Z,12.56
2023-04-18T14:00:27.292Z,12.52
2023-04-18T14:02:28.959Z,12.27
2023-04-18T14:04:30.762Z,12.15
2023-04-18T14:06:32.392Z,11.94
2023-04-18T14:08:33.934Z,11.70
2023-04-18T14:10:36.992Z,11.66
2023-04-18T14:12:38.556Z,11.55
2023-04-18T14:14:40.047Z,11.76
2023-04-18T14:16:41.379Z,11.84
2023-04-18T14:18:42.995Z,11.95
2023-04-18T14:20:44.465Z,11.89
2023-04-18T14:22:45.857Z,11.89
2023-04-18T14:24:47.373Z,11.93
2023-04-18T14:26:50.244Z,12.01
2023-04-18T14:28:51.734Z,11.87
2023-04-18T14:30:53.129Z,11.85
2023-04-18T14:32:54.716Z,11.69
2023-04-18T14:34:56.248Z,11.59
2023-04-18T14:36:57.583Z,11.58
2023-04-18T14:38:59.131Z,11.46
2023-04-18T14:41:00.751Z,11.35
2023-04-18T14:43:03.575Z,11.40
2023-04-18T14:45:06.316Z,11.36
2023-04-18T14:47:07.953Z,11.42
2023-04-18T14:49:09.539Z,11.37
2023-04-18T14:51:10.863Z,11.31
2023-04-18T14:53:12.706Z,11.23
2023-04-18T14:55:14.330Z,11.21
2023-04-18T14:57:15.914Z,11.20
2023-04-18T14:59:19.020Z,11.19
2023-04-18T15:01:21.123Z,11.20
2023-04-18T15:03:23.055Z,11.18
2023-04-18T15:05:24.647Z,11.12
2023-04-18T15:07:26.266Z,11.18
2023-04-18T15:09:27.823Z,11.36
2023-04-18T15:11:29.416Z,11.47
2023-04-18T15:13:30.885Z,11.47
2023-04-18T15:15:33.557Z,11.41
2023-04-18T15:17:35.330Z,11.34
2023-04-18T15:19:36.908Z,11.32
2023-04-18T15:21:38.446Z,11.26
2023-04-18T15:23:39.946Z,11.31
2023-04-18T15:25:41.346Z,11.48
2023-04-18T15:27:42.902Z,11.44
2023-04-18T15:29:44.402Z,11.39
2023-04-18T15:31:47.273Z,11.47
2023-04-18T15:33:48.813Z,11.48
2023-04-18T15:35:50.455Z,11.44
2023-04-18T15:37:51.924Z,11.37
2023-04-18T15:39:53.227Z,11.36
2023-04-18T15:41:54.863Z,11.36
2023-04-18T15:43:56.373Z,11.37
2023-04-18T15:45:57.708Z,11.30
2023-04-18T15:48:02.416Z,11.28
2023-04-18T15:50:04.969Z,11.30
2023-04-18T15:52:06.517Z,11.38
2023-04-18T15:54:08.106Z,11.28
2023-04-18T15:56:09.611Z,11.32
2023-04-18T15:58:10.964Z,11.37
2023-04-18T16:00:13.684Z,11.35
2023-04-18T16:02:15.300Z,11.44
2023-04-18T16:04:18.349Z,11.47
2023-04-18T16:06:19.996Z,11.58
2023-04-18T16:08:21.808Z,11.65
2023-04-18T16:10:23.745Z,11.72
2023-04-18T16:12:25.239Z,11.88
2023-04-18T16:14:26.668Z,12.03
2023-04-18T16:16:28.213Z,12.22
2023-04-18T16:18:29.823Z,11.94
2023-04-18T16:20:32.746Z,11.95
2023-04-18T16:22:34.296Z,11.85
2023-04-18T16:24:35.847Z,11.73
2023-04-18T16:26:37.321Z,11.64
2023-04-18T16:28:38.641Z,11.64
2023-04-18T16:30:40.391Z,11.60
2023-04-18T16:32:41.954Z,11.58
2023-04-18T16:34:43.517Z,11.61
2023-04-18T16:36:46.255Z,11.67
2023-04-18T16:38:47.963Z,11.62
2023-04-18T16:40:49.472Z,11.72
2023-04-18T16:42:51.027Z,11.66
2023-04-18T16:44:52.519Z,11.57
2023-04-18T16:46:53.867Z,11.46
2023-04-18T16:48:55.387Z,11.43
2023-04-18T16:50:57.171Z,11.44
2023-04-18T16:53:00.293Z,11.36
2023-04-18T16:55:01.823Z,11.19
2023-04-18T16:57:03.340Z,11.11
2023-04-18T16:59:04.906Z,11.05
2023-04-18T17:01:06.440Z,10.89
2023-04-18T17:03:08.071Z,10.91
2023-04-18T17:05:10.492Z,10.82
2023-04-18T17:07:12.139Z,10.73
2023-04-18T17:09:15.250Z,10.72
2023-04-18T17:11:16.831Z,10.65
2023-04-18T17:13:18.552Z,10.60
2023-04-18T17:15:20.801Z,10.59
2023-04-18T17:17:22.734Z,10.56
2023-04-18T17:19:24.211Z,10.56
2023-04-18T17:21:25.746Z,10.52
2023-04-18T17:23:27.261Z,10.53
2023-04-18T17:25:30.193Z,10.49
2023-04-18T17:27:31.742Z,10.48
2023-04-18T17:29:33.244Z,10.50
2023-04-18T17:31:36.293Z,10.42
2023-04-18T17:33:37.802Z,10.42
2023-04-18T17:35:40.165Z,10.42
2023-04-18T17:37:41.762Z,10.34
2023-04-18T17:39:43.430Z,10.27
2023-04-18T17:41:46.260Z,10.26
2023-04-18T17:43:50.247Z,10.24
2023-04-18T17:45:51.905Z,10.24
2023-04-18T17:47:53.426Z,10.21
2023-04-18T17:49:54.780Z,10.20
2023-04-18T17:51:56.413Z,10.17
2023-04-18T17:53:58.116Z,10.16
2023-04-18T17:55:59.698Z,10.19
2023-04-18T17:58:02.562Z,10.17
2023-04-18T18:00:05.084Z,10.13
2023-04-18T18:02:07.051Z,10.16
2023-04-18T18:04:08.786Z,10.09
2023-04-18T18:06:11.452Z,10.11
2023-04-18T18:08:13.355Z,10.09
2023-04-18T18:10:17.173Z,10.09
2023-04-18T18:12:18.760Z,10.10
2023-04-18T18:14:21.596Z,10.11
2023-04-18T18:16:23.610Z,10.11
2023-04-18T18:18:25.143Z,10.07
2023-04-18T18:20:26.441Z,10.06
2023-04-18T18:22:28.679Z,10.02
2023-04-18T18:24:30.252Z,9.99
2023-04-18T18:26:31.572Z,10.00
2023-04-18T18:28:33.390Z,10.00
2023-04-18T18:30:36.466Z,10.00
2023-04-18T18:32:37.989Z,9.98
2023-04-18T18:34:39.370Z,9.96
2023-04-18T18:36:40.843Z,9.97
2023-04-18T18:38:44.565Z,9.99
2023-04-18T18:40:46.091Z,9.98
2023-04-18T18:42:50.216Z,9.98
2023-04-18T18:44:53.953Z,9.96
2023-04-18T18:46:57.237Z,9.96
2023-04-18T18:48:59.087Z,9.94
2023-04-18T18:51:00.544Z,9.91
2023-04-18T18:53:04.695Z,9.92
2023-04-18T18:55:08.512Z,9.91
2023-04-18T18:57:10.002Z,9.89
2023-04-18T18:59:11.368Z,9.89
2023-04-18T19:01:15.785Z,9.87
2023-04-18T19:03:21.505Z,9.85
2023-04-18T19:05:26.171Z,9.87
2023-04-18T19:07:29.909Z,9.87
2023-04-18T19:09:31.668Z,9.87
2023-04-18T19:11:33.419Z,9.80
2023-04-18T19:13:34.874Z,9.86
2023-04-18T19:15:36.619Z,9.87
2023-04-18T19:17:38.178Z,9.83
2023-04-18T19:19:41.227Z,9.81
2023-04-18T19:21:42.984Z,9.80
2023-04-18T19:23:44.494Z,9.74
2023-04-18T19:25:45.944Z,9.74
2023-04-18T19:27:47.467Z,9.74
2023-04-18T19:29:48.770Z,9.70
2023-04-18T19:31:50.302Z,9.71
2023-04-18T19:33:52.855Z,9.71
2023-04-18T19:35:55.914Z,9.70
2023-04-18T19:37:58.627Z,9.67
2023-04-18T19:40:00.155Z,9.64
2023-04-18T19:42:01.665Z,9.65
2023-04-18T19:44:03.068Z,9.61
2023-04-18T19:46:05.320Z,9.56
2023-04-18T19:48:06.937Z,9.54
2023-04-18T19:50:09.187Z,9.52
2023-04-18T19:52:12.882Z,9.50
2023-04-18T19:54:14.403Z,9.52
2023-04-18T19:56:15.745Z,9.49
2023-04-18T19:58:35.509Z,9.44
2023-04-18T20:00:36.975Z,9.47
2023-04-18T20:02:38.804Z,9.44
2023-04-18T20:04:41.399Z,9.47
2023-04-18T20:06:42.946Z,9.45
2023-04-18T20:08:45.862Z,9.44
2023-04-18T20:10:47.788Z,9.43
2023-04-18T20:12:50.134Z,9.42
2023-04-18T20:14:51.948Z,9.40
2023-04-18T20:16:54.524Z,9.36
2023-04-18T20:18:56.814Z,9.31
2023-04-18T20:20:58.757Z,9.30
2023-04-18T20:23:00.412Z,9.31
2023-04-18T20:25:03.577Z,9.27
2023-04-18T20:27:05.193Z,9.28
2023-04-18T20:29:07.100Z,9.28
2023-04-18T20:31:08.583Z,9.24
2023-04-18T20:33:10.489Z,9.24
2023-04-18T20:35:13.927Z,9.24
2023-04-18T20:37:15.412Z,9.24
2023-04-18T20:39:16.944Z,9.20
2023-04-18T20:41:20.195Z,9.17
2023-04-18T20:43:21.784Z,9.19
2023-04-18T20:45:23.900Z,9.16
2023-04-18T20:47:25.520Z,9.18
2023-04-18T20:49:27.060Z,9.21
2023-04-18T20:51:28.361Z,9.23
2023-04-18T20:53:29.841Z,9.19
2023-04-18T20:55:31.196Z,9.17
2023-04-18T20:57:34.101Z,9.12
2023-04-18T20:59:35.598Z,9.12
2023-04-18T21:01:37.249Z,9.08
2023-04-18T21:03:39.028Z,9.07
2023-04-18T21:05:40.657Z,9.06
2023-04-18T21:07:42.992Z,9.06
2023-04-18T21:09:45.508Z,9.08
2023-04-18T21:11:47.052Z,9.03
2023-04-18T21:13:49.713Z,9.04
2023-04-18T21:15:51.219Z,9.00
2023-04-18T21:17:53.037Z,8.98
2023-04-18T21:19:54.882Z,8.92
2023-04-18T21:21:56.528Z,8.93
2023-04-18T21:23:58.023Z,8.90
2023-04-18T21:25:59.333Z,8.88
2023-04-18T21:28:00.920Z,8.89
2023-04-18T21:30:05.104Z,8.86
2023-04-18T21:32:06.773Z,8.87
2023-04-18T21:34:08.169Z,8.88
2023-04-18T21:36:09.802Z,8.84
2023-04-18T21:38:11.331Z,8.85
2023-04-18T21:40:12.774Z,8.86
2023-04-18T21:42:14.269Z,8.86
2023-04-18T21:44:15.987Z,8.84
2023-04-18T21:46:19.884Z,8.82
2023-04-18T21:48:21.372Z,8.79
2023-04-18T21:50:23.198Z,8.80
2023-04-18T21:52:24.782Z,8.77
2023-04-18T21:54:26.323Z,8.77
2023-04-18T21:56:27.658Z,8.80
2023-04-18T21:58:29.622Z,8.80
2023-04-18T22:00:31.073Z,8.80
2023-04-18T22:02:34.006Z,8.82
2023-04-18T22:04:35.656Z,8.80
2023-04-18T22:06:36.972Z,8.82
2023-04-18T22:08:38.851Z,8.75
2023-04-18T22:10:40.722Z,8.73
2023-04-18T22:12:42.187Z,8.70
2023-04-18T22:14:43.987Z,8.71
2023-04-18T22:16:45.526Z,8.69
2023-04-18T22:18:48.193Z,8.71
2023-04-18T22:20:49.769Z,8.75
2023-04-18T22:22:51.203Z,8.74
2023-04-18T22:24:52.674Z,8.77
2023-04-18T22:26:54.173Z,8.74
2023-04-18T22:28:55.543Z,8.70
2023-04-18T22:30:57.113Z,8.68
2023-04-18T22:32:58.999Z,8.63
2023-04-18T22:35:01.985Z,8.64
2023-04-18T22:37:03.556Z,8.68
2023-04-18T22:39:04.911Z,8.68
2023-04-18T22:41:06.427Z,8.66
2023-04-18T22:43:07.778Z,8.63
2023-04-18T22:45:10.221Z,8.63
2023-04-18T22:47:11.749Z,8.62
2023-04-18T22:49:13.057Z,8.57
2023-04-18T22:51:15.950Z,8.57
2023-04-18T22:53:17.413Z,8.59
2023-04-18T22:55:18.912Z,8.57
2023-04-18T22:57:20.304Z,8.57
2023-04-18T22:59:21.854Z,8.52
2023-04-18T23:01:23.274Z,8.52
2023-04-18T23:03:25.089Z,8.50
2023-04-18T23:05:26.728Z,8.46
2023-04-18T23:07:29.466Z,8.51
2023-04-18T23:09:31.023Z,8.52
2023-04-18T23:11:32.331Z,8.47
2023-04-18T23:13:33.878Z,8.47
2023-04-18T23:15:35.261Z,8.46
2023-04-18T23:17:36.868Z,8.44
2023-04-18T23:19:38.414Z,8.46
2023-04-18T23:21:39.987Z,8.45
2023-04-18T23:23:42.669Z,8.45
2023-04-18T23:25:44.134Z,8.45
2023-04-18T23:27:45.614Z,8.44
2023-04-18T23:29:47.885Z,8.43
2023-04-18T23:31:49.400Z,8.41
2023-04-18T23:33:50.723Z,8.42
2023-04-18T23:35:52.248Z,8.41
2023-04-18T23:37:53.536Z,8.38
2023-04-18T23:39:56.527Z,8.39
2023-04-18T23:41:58.222Z,8.39
2023-04-18T23:43:59.869Z,8.41
2023-04-18T23:46:01.401Z,8.44
2023-04-18T23:48:02.768Z,8.41
2023-04-18T23:50:05.163Z,8.37
2023-04-18T23:52:06.637Z,8.38
2023-04-18T23:54:08.175Z,8.34
2023-04-18T23:56:10.902Z,8.34
2023-04-18T23:58:12.920Z,8.33
